CheckWX is a tool to help pilots better visualize weather data.  It is not intended as a substitute for an official pre-flight weather briefing.

11:50:51 UTC

KSWO METAR
Stillwater Regional Airport
Stillwater, Oklahoma, USA
Current

22 mins ago

KSWO 251129Z AUTO 11008KT 10SM FEW008 BKN100 OVC120 18/16 A2979 RMK AO2 T01830161
Observed
May-25 @ 11:29 UTC
Wind
  • 110° at 8 KTS
Visibility
Flight Rules
VFR
Cloud Levels
  • Few at 800' AGL
  • Broken at 10,000' AGL
  • Overcast at 12,000' AGL
Temperature
18°C / 64°F
Dewpoint
16°C / 61°F
Humidity
88%
Altimeter
29.79" Hg
Pressure
1008.82 hPa
Previous

58 mins ago

KSWO 251053Z AUTO 13014KT 10SM SCT090 18/16 A2978 RMK AO2 SLP072 T01830161
Observed
May-25 @ 10:53 UTC
Wind
  • 130° at 14 KTS
Visibility
Flight Rules
VFR
Cloud Levels
  • Scattered at 9,000' AGL
Temperature
18°C / 64°F
Dewpoint
16°C / 61°F
Humidity
88%
Altimeter
29.78" Hg
Pressure
1008.42 hPa
Previous

2 hours ago

KSWO 250953Z AUTO 11008KT 10SM OVC060 19/16 A2978 RMK AO2 SLP073 T01890156
Observed
May-25 @ 09:53 UTC
Wind
  • 110° at 8 KTS
Visibility
Flight Rules
VFR
Cloud Levels
  • Overcast at 6,000' AGL
Temperature
19°C / 66°F
Dewpoint
16°C / 61°F
Humidity
83%
Altimeter
29.78" Hg
Pressure
1008.42 hPa